createdAt,value
2022-08-01T00:00:56.556Z,11.70
2022-08-01T00:03:23.983Z,11.70
2022-08-01T00:05:51.453Z,11.70
2022-08-01T00:08:19.053Z,11.70
2022-08-01T00:10:46.511Z,11.70
2022-08-01T00:13:14.177Z,11.60
2022-08-01T00:15:51.827Z,11.50
2022-08-01T00:18:24.018Z,11.50
2022-08-01T00:20:51.380Z,11.40
2022-08-01T00:23:19.195Z,11.40
2022-08-01T00:25:46.665Z,11.40
2022-08-01T00:28:14.621Z,11.30
2022-08-01T00:30:42.031Z,11.30
2022-08-01T00:33:09.682Z,11.30
2022-08-01T00:35:37.112Z,11.30
2022-08-01T00:38:04.631Z,11.30
2022-08-01T00:40:31.982Z,11.20
2022-08-01T00:42:59.717Z,11.20
2022-08-01T00:45:28.234Z,11.20
2022-08-01T00:47:56.178Z,11.20
2022-08-01T00:50:24.812Z,11.20
2022-08-01T00:52:52.727Z,11.10
2022-08-01T00:55:20.408Z,11.10
2022-08-01T00:58:02.210Z,11.10
2022-08-01T01:00:44.813Z,11.10
2022-08-01T01:03:23.808Z,11.10
2022-08-01T01:06:00.981Z,11.00
2022-08-01T01:08:33.334Z,11.00
2022-08-01T01:11:21.001Z,10.90
2022-08-01T01:13:53.509Z,10.90
2022-08-01T01:16:22.987Z,10.90
2022-08-01T01:18:58.714Z,10.90
2022-08-01T01:21:36.003Z,10.80
2022-08-01T01:24:06.508Z,10.80
2022-08-01T01:26:52.638Z,10.80
2022-08-01T01:29:20.519Z,10.80
2022-08-01T01:31:54.521Z,10.70
2022-08-01T01:34:22.849Z,10.70
2022-08-01T01:36:51.827Z,10.70
2022-08-01T01:39:19.309Z,10.70
2022-08-01T01:41:47.919Z,10.60
2022-08-01T01:44:16.275Z,10.60
2022-08-01T01:46:43.963Z,10.60
2022-08-01T01:49:12.588Z,10.60
2022-08-01T01:51:42.116Z,10.60
2022-08-01T01:54:21.518Z,10.60
2022-08-01T01:56:51.867Z,10.60
2022-08-01T01:59:25.761Z,10.60
2022-08-01T02:01:58.437Z,10.60
2022-08-01T02:04:36.209Z,10.60
2022-08-01T02:07:04.031Z,10.60
2022-08-01T02:09:34.849Z,10.60
2022-08-01T02:12:08.886Z,10.60
2022-08-01T02:14:38.209Z,10.50
2022-08-01T02:17:05.668Z,10.50
2022-08-01T02:19:38.077Z,10.50
2022-08-01T02:22:09.029Z,10.50
2022-08-01T02:24:38.567Z,10.50
2022-08-01T02:27:08.698Z,10.50
2022-08-01T02:29:38.815Z,10.40
2022-08-01T02:32:08.133Z,10.50
2022-08-01T02:34:36.801Z,10.50
2022-08-01T02:37:04.474Z,10.50
2022-08-01T02:39:32.967Z,10.50
2022-08-01T02:42:04.666Z,10.40
2022-08-01T02:44:36.318Z,10.40
2022-08-01T02:47:04.480Z,10.40
2022-08-01T02:49:34.556Z,10.40
2022-08-01T02:52:08.247Z,10.40
2022-08-01T02:54:37.159Z,10.40
2022-08-01T02:57:05.185Z,10.40
2022-08-01T02:59:34.999Z,10.40
2022-08-01T03:02:03.129Z,10.80
2022-08-01T03:04:31.292Z,10.40
2022-08-01T03:06:59.605Z,10.40
2022-08-01T03:09:27.922Z,10.40
2022-08-01T03:11:56.909Z,10.40
2022-08-01T03:14:24.858Z,10.40
2022-08-01T03:16:53.878Z,10.40
2022-08-01T03:19:21.861Z,10.40
2022-08-01T03:21:49.640Z,10.30
2022-08-01T03:24:17.690Z,10.30
2022-08-01T03:26:45.845Z,10.30
2022-08-01T03:29:22.781Z,10.20
2022-08-01T03:31:50.643Z,10.20
2022-08-01T03:34:18.292Z,10.20
2022-08-01T03:36:50.800Z,10.20
2022-08-01T03:39:20.257Z,10.20
2022-08-01T03:41:56.507Z,10.10
2022-08-01T03:44:26.954Z,10.10
2022-08-01T03:46:57.874Z,10.10
2022-08-01T03:49:30.134Z,10.10
2022-08-01T03:51:58.033Z,10.10
2022-08-01T03:54:26.188Z,10.00
2022-08-01T03:56:53.758Z,10.10
2022-08-01T03:59:21.719Z,10.10
2022-08-01T04:01:49.415Z,10.10
2022-08-01T04:04:16.940Z,10.10
2022-08-01T04:06:49.155Z,10.10
2022-08-01T04:09:16.711Z,10.10
2022-08-01T04:11:44.103Z,10.10
2022-08-01T04:14:11.601Z,10.10
2022-08-01T04:16:39.057Z,10.10
2022-08-01T04:19:08.670Z,10.00
2022-08-01T04:21:36.672Z,10.10
2022-08-01T04:24:10.119Z,10.00
2022-08-01T04:26:38.672Z,10.10
2022-08-01T04:29:07.100Z,10.00
2022-08-01T04:31:36.076Z,10.10
2022-08-01T04:34:04.227Z,10.10
2022-08-01T04:36:33.812Z,10.10
2022-08-01T04:39:01.589Z,10.10
2022-08-01T04:41:30.244Z,10.10
2022-08-01T04:44:00.306Z,10.10
2022-08-01T04:46:28.694Z,10.10
2022-08-01T04:48:57.146Z,10.10
2022-08-01T04:51:25.442Z,10.10
2022-08-01T04:53:53.257Z,10.10
2022-08-01T04:56:21.842Z,10.10
2022-08-01T04:58:49.572Z,10.10
2022-08-01T05:01:17.060Z,10.10
2022-08-01T05:03:45.109Z,10.10
2022-08-01T05:06:12.654Z,10.20
2022-08-01T05:08:40.367Z,10.10
2022-08-01T05:11:08.150Z,10.20
2022-08-01T05:13:35.500Z,10.20
2022-08-01T05:16:04.658Z,10.20
2022-08-01T05:18:32.215Z,10.30
2022-08-01T05:21:00.277Z,10.30
2022-08-01T05:23:41.943Z,10.30
2022-08-01T05:26:11.355Z,10.40
2022-08-01T05:28:42.597Z,10.40
2022-08-01T05:31:10.093Z,10.40
2022-08-01T05:33:37.567Z,10.50
2022-08-01T05:36:05.181Z,10.50
2022-08-01T05:38:32.655Z,10.60
2022-08-01T05:41:00.112Z,10.60
2022-08-01T05:43:29.125Z,10.50
2022-08-01T05:45:56.930Z,10.70
2022-08-01T05:48:24.312Z,10.70
2022-08-01T05:50:56.763Z,10.70
2022-08-01T05:53:26.091Z,10.80
2022-08-01T05:55:53.642Z,10.80
2022-08-01T05:58:21.099Z,10.90
2022-08-01T06:00:48.508Z,11.00
2022-08-01T06:03:16.063Z,11.00
2022-08-01T06:05:43.460Z,11.10
2022-08-01T06:08:10.958Z,11.10
2022-08-01T06:10:38.607Z,11.20
2022-08-01T06:13:06.041Z,11.30
2022-08-01T06:15:33.553Z,11.40
2022-08-01T06:18:01.161Z,11.40
2022-08-01T06:20:28.674Z,11.50
2022-08-01T06:22:56.116Z,11.60
2022-08-01T06:25:23.852Z,11.70
2022-08-01T06:27:51.499Z,11.80
2022-08-01T06:30:19.535Z,11.80
2022-08-01T06:32:47.251Z,11.90
2022-08-01T06:35:15.281Z,12.00
2022-08-01T06:37:42.733Z,12.10
2022-08-01T06:40:16.688Z,12.20
2022-08-01T06:42:46.805Z,12.30
2022-08-01T06:45:15.111Z,12.30
2022-08-01T06:47:43.236Z,12.30
2022-08-01T06:50:11.326Z,12.40
2022-08-01T06:52:39.229Z,12.40
2022-08-01T06:55:06.967Z,12.40
2022-08-01T06:57:48.823Z,12.40
2022-08-01T07:00:17.376Z,12.40
2022-08-01T07:02:44.831Z,12.40
2022-08-01T07:05:12.391Z,12.30
2022-08-01T07:07:40.047Z,12.30
2022-08-01T07:10:09.433Z,12.30
2022-08-01T07:12:39.077Z,12.30
2022-08-01T07:15:06.681Z,12.30
2022-08-01T07:17:37.350Z,12.30
2022-08-01T07:20:05.165Z,12.40
2022-08-01T07:22:32.537Z,12.50
2022-08-01T07:25:05.791Z,12.60
2022-08-01T07:27:33.300Z,12.60
2022-08-01T07:30:00.811Z,12.70
2022-08-01T07:32:30.208Z,12.80
2022-08-01T07:34:57.981Z,12.90
2022-08-01T07:37:45.417Z,13.00
2022-08-01T07:40:15.775Z,13.10
2022-08-01T07:42:44.488Z,13.20
2022-08-01T07:45:12.551Z,13.40
2022-08-01T07:47:40.156Z,13.50
2022-08-01T07:50:08.076Z,13.60
2022-08-01T07:52:35.492Z,13.70
2022-08-01T07:55:03.407Z,13.80
2022-08-01T07:57:30.817Z,14.00
2022-08-01T07:59:58.426Z,14.10
2022-08-01T08:02:25.929Z,14.20
2022-08-01T08:04:53.708Z,14.30
2022-08-01T08:07:21.124Z,14.40
2022-08-01T08:09:51.172Z,14.50
2022-08-01T08:12:19.094Z,14.60
2022-08-01T08:14:57.538Z,14.60
2022-08-01T08:17:25.743Z,14.70
2022-08-01T08:19:53.278Z,14.90
2022-08-01T08:22:20.772Z,14.90
2022-08-01T08:24:49.768Z,15.00
2022-08-01T08:27:17.744Z,15.10
2022-08-01T08:29:46.813Z,15.20
2022-08-01T08:32:14.255Z,15.30
2022-08-01T08:34:42.140Z,15.40
2022-08-01T08:37:09.894Z,15.50
2022-08-01T08:39:41.212Z,15.60
2022-08-01T08:42:10.205Z,15.70
2022-08-01T08:44:39.786Z,15.90
2022-08-01T08:47:19.614Z,15.90
2022-08-01T08:49:49.830Z,16.00
2022-08-01T08:52:19.875Z,16.10
2022-08-01T08:54:48.163Z,16.20
2022-08-01T08:57:16.343Z,16.30
2022-08-01T08:59:44.924Z,16.40
2022-08-01T09:02:13.623Z,16.50
2022-08-01T09:04:41.497Z,16.50
2022-08-01T09:07:09.970Z,16.60
2022-08-01T09:09:41.747Z,16.60
2022-08-01T09:12:09.780Z,16.70
2022-08-01T09:14:45.188Z,16.80
2022-08-01T09:17:13.712Z,16.90
2022-08-01T09:19:42.262Z,17.00
2022-08-01T09:22:11.095Z,17.10
2022-08-01T09:24:38.906Z,17.20
2022-08-01T09:27:17.177Z,17.30
2022-08-01T09:29:45.802Z,17.30
2022-08-01T09:32:17.458Z,17.40
2022-08-01T09:34:44.964Z,17.50
2022-08-01T09:37:18.520Z,17.60
2022-08-01T09:39:59.126Z,17.70
2022-08-01T09:42:28.464Z,17.80
2022-08-01T09:44:56.820Z,17.80
2022-08-01T09:47:38.761Z,17.90
2022-08-01T09:50:10.844Z,18.00
2022-08-01T09:52:41.042Z,18.00
2022-08-01T09:55:10.235Z,18.10
2022-08-01T09:57:37.611Z,18.20
2022-08-01T10:00:05.974Z,18.30
2022-08-01T10:02:42.587Z,18.40
2022-08-01T10:05:21.143Z,18.50
2022-08-01T10:07:58.878Z,18.60
2022-08-01T10:10:29.141Z,18.70
2022-08-01T10:12:59.967Z,18.80
2022-08-01T10:15:37.223Z,18.80
2022-08-01T10:18:16.046Z,19.00
2022-08-01T10:20:44.652Z,19.00
2022-08-01T10:23:13.298Z,19.00
2022-08-01T10:25:46.604Z,19.00
2022-08-01T10:28:21.181Z,19.10
2022-08-01T10:30:50.097Z,19.30
2022-08-01T10:33:49.977Z,19.40
2022-08-01T10:36:08.726Z,19.50
2022-08-01T10:38:37.362Z,19.70
2022-08-01T10:41:06.425Z,19.80
2022-08-01T10:43:36.535Z,19.90
2022-08-01T10:46:05.166Z,20.10
2022-08-01T10:48:39.507Z,20.10
2022-08-01T10:51:18.022Z,20.20
2022-08-01T10:53:54.448Z,20.30
2022-08-01T10:56:27.133Z,20.40
2022-08-01T10:59:06.263Z,20.40
2022-08-01T11:01:44.975Z,20.50
2022-08-01T11:04:16.885Z,20.60
2022-08-01T11:06:51.509Z,20.80
2022-08-01T11:09:37.481Z,20.90
2022-08-01T11:12:08.252Z,21.00
2022-08-01T11:14:59.832Z,21.00
2022-08-01T11:17:42.822Z,21.10
2022-08-01T11:20:17.629Z,21.20
2022-08-01T11:23:11.838Z,21.40
2022-08-01T11:26:06.755Z,21.60
2022-08-01T11:28:40.656Z,21.80
2022-08-01T11:31:17.825Z,22.00
2022-08-01T11:33:49.857Z,22.10
2022-08-01T11:36:56.921Z,22.20
2022-08-01T11:39:13.853Z,22.30
2022-08-01T11:41:44.841Z,22.50
2022-08-01T11:44:20.933Z,22.60
2022-08-01T11:47:09.403Z,22.80
2022-08-01T11:49:38.685Z,22.90
2022-08-01T11:52:17.062Z,23.00
2022-08-01T11:54:47.510Z,23.00
2022-08-01T11:57:15.008Z,23.20
2022-08-01T12:00:03.883Z,23.20
2022-08-01T12:02:41.287Z,23.30
2022-08-01T12:05:12.915Z,23.20
2022-08-01T12:07:42.556Z,23.40
2022-08-01T12:10:11.707Z,23.70
2022-08-01T12:12:52.415Z,23.90
2022-08-01T12:15:20.719Z,24.10
2022-08-01T12:17:57.646Z,24.40
2022-08-01T12:20:31.582Z,24.60
2022-08-01T12:23:00.953Z,24.80
2022-08-01T12:25:28.744Z,25.00
2022-08-01T12:27:59.968Z,25.20
2022-08-01T12:30:28.028Z,25.40
2022-08-01T12:32:55.830Z,25.40
2022-08-01T12:35:24.998Z,25.60
2022-08-01T12:37:53.605Z,25.70
2022-08-01T12:40:21.043Z,25.60
2022-08-01T12:42:49.714Z,25.70
2022-08-01T12:45:18.568Z,25.70
2022-08-01T12:47:46.786Z,25.90
2022-08-01T12:50:15.700Z,26.20
2022-08-01T12:52:43.249Z,26.50
2022-08-01T12:55:20.023Z,26.70
2022-08-01T12:57:51.969Z,26.90
2022-08-01T13:00:22.502Z,27.00
2022-08-01T13:02:51.248Z,26.80
2022-08-01T13:05:18.732Z,26.70
2022-08-01T13:07:47.446Z,26.60
2022-08-01T13:10:15.640Z,26.60
2022-08-01T13:12:52.819Z,26.50
2022-08-01T13:15:32.677Z,26.50
2022-08-01T13:18:01.080Z,26.50
2022-08-01T13:20:32.993Z,26.40
2022-08-01T13:23:14.971Z,26.30
2022-08-01T13:25:52.199Z,26.40
2022-08-01T13:28:24.236Z,26.40
2022-08-01T13:30:57.950Z,26.50
2022-08-01T13:33:26.339Z,26.70
2022-08-01T13:35:54.919Z,26.70
2022-08-01T13:38:42.788Z,26.40
2022-08-01T13:41:10.311Z,26.10
2022-08-01T13:43:58.374Z,25.90
2022-08-01T13:46:25.844Z,25.80
2022-08-01T13:48:57.007Z,25.70
2022-08-01T13:51:24.499Z,25.70
2022-08-01T13:53:51.895Z,25.60
2022-08-01T13:56:19.664Z,25.40
2022-08-01T13:58:47.313Z,25.20
2022-08-01T14:01:14.990Z,25.20
2022-08-01T14:03:42.439Z,25.20
2022-08-01T14:06:10.094Z,25.20
2022-08-01T14:08:37.492Z,25.50
2022-08-01T14:11:07.625Z,25.80
2022-08-01T14:13:36.915Z,25.90
2022-08-01T14:16:04.668Z,25.90
2022-08-01T14:18:32.219Z,26.00
2022-08-01T14:21:05.643Z,26.10
2022-08-01T14:23:33.555Z,26.00
2022-08-01T14:26:08.178Z,25.90
2022-08-01T14:28:39.571Z,25.70
2022-08-01T14:31:10.071Z,25.60
2022-08-01T14:33:38.175Z,25.50
2022-08-01T14:36:30.811Z,25.80
2022-08-01T14:38:53.177Z,26.10
2022-08-01T14:41:21.021Z,26.50
2022-08-01T14:43:48.437Z,26.70
2022-08-01T14:46:15.938Z,26.80
2022-08-01T14:48:43.485Z,26.90
2022-08-01T14:51:11.058Z,27.00
2022-08-01T14:53:38.620Z,27.00
2022-08-01T14:56:07.085Z,27.20
2022-08-01T14:58:34.797Z,27.40
2022-08-01T15:01:02.412Z,27.70
2022-08-01T15:03:29.974Z,27.70
2022-08-01T15:05:57.520Z,27.50
2022-08-01T15:08:25.219Z,27.20
2022-08-01T15:10:52.776Z,27.00
2022-08-01T15:13:20.196Z,26.80
2022-08-01T15:15:48.132Z,26.60
2022-08-01T15:18:15.651Z,26.50
2022-08-01T15:20:43.188Z,26.30
2022-08-01T15:23:10.542Z,26.30
2022-08-01T15:25:41.830Z,26.40
2022-08-01T15:28:12.722Z,26.50
2022-08-01T15:30:40.372Z,26.40
2022-08-01T15:33:07.817Z,26.20
2022-08-01T15:35:35.302Z,26.10
2022-08-01T15:38:03.210Z,26.00
2022-08-01T15:40:33.966Z,26.30
2022-08-01T15:43:01.683Z,26.50
2022-08-01T15:45:46.983Z,26.80
2022-08-01T15:48:19.668Z,27.10
2022-08-01T15:50:48.704Z,27.40
2022-08-01T15:53:16.132Z,27.50
2022-08-01T15:55:46.632Z,27.60
2022-08-01T15:58:20.674Z,27.50
2022-08-01T16:00:48.246Z,27.40
2022-08-01T16:03:15.622Z,27.30
2022-08-01T16:05:44.481Z,27.30
2022-08-01T16:08:12.527Z,27.30
2022-08-01T16:10:40.111Z,27.30
2022-08-01T16:13:08.230Z,27.20
2022-08-01T16:15:36.480Z,27.00
2022-08-01T16:18:07.930Z,26.80
2022-08-01T16:20:35.654Z,26.60
2022-08-01T16:23:03.026Z,26.50
2022-08-01T16:25:30.742Z,26.40
2022-08-01T16:27:58.216Z,26.20
2022-08-01T16:30:25.783Z,26.00
2022-08-01T16:32:53.856Z,25.90
2022-08-01T16:35:24.543Z,25.90
2022-08-01T16:37:58.979Z,25.80
2022-08-01T16:40:26.809Z,25.80
2022-08-01T16:42:54.723Z,25.70
2022-08-01T16:45:26.126Z,25.60
2022-08-01T16:47:53.613Z,25.50
2022-08-01T16:50:28.749Z,25.40
2022-08-01T16:52:56.503Z,25.40
2022-08-01T16:55:23.894Z,25.30
2022-08-01T16:57:51.391Z,25.20
2022-08-01T17:00:22.789Z,25.10
2022-08-01T17:02:50.562Z,25.10
2022-08-01T17:05:18.168Z,25.00
2022-08-01T17:07:45.649Z,24.90
2022-08-01T17:10:14.193Z,24.80
2022-08-01T17:12:42.232Z,24.70
2022-08-01T17:15:09.792Z,24.60
2022-08-01T17:17:37.196Z,24.50
2022-08-01T17:20:05.004Z,24.50
2022-08-01T17:22:32.421Z,24.40
2022-08-01T17:24:59.872Z,24.40
2022-08-01T17:27:27.317Z,24.30
2022-08-01T17:29:54.735Z,24.30
2022-08-01T17:32:22.096Z,24.40
2022-08-01T17:34:50.800Z,24.50
2022-08-01T17:37:18.235Z,24.50
2022-08-01T17:39:45.719Z,24.50
2022-08-01T17:42:13.223Z,24.60
2022-08-01T17:44:41.747Z,24.60
2022-08-01T17:47:34.386Z,24.60
2022-08-01T17:50:05.432Z,24.50
2022-08-01T17:52:33.209Z,24.40
2022-08-01T17:55:00.664Z,24.40
2022-08-01T17:57:28.401Z,24.30
2022-08-01T17:59:55.961Z,24.20
2022-08-01T18:02:23.599Z,24.10
2022-08-01T18:04:52.720Z,24.00
2022-08-01T18:07:21.019Z,23.80
2022-08-01T18:09:48.658Z,23.70
2022-08-01T18:12:16.350Z,23.60
2022-08-01T18:14:46.162Z,23.50
2022-08-01T18:17:13.703Z,23.40
2022-08-01T18:19:41.251Z,23.30
2022-08-01T18:22:14.509Z,23.20
2022-08-01T18:24:59.405Z,23.00
2022-08-01T18:28:29.206Z,22.90
2022-08-01T18:30:19.085Z,22.80
2022-08-01T18:32:46.470Z,22.60
2022-08-01T18:35:14.443Z,22.40
2022-08-01T18:37:54.667Z,22.20
2022-08-01T18:40:23.506Z,22.00
2022-08-01T18:42:50.967Z,21.80
2022-08-01T18:45:18.421Z,21.60
2022-08-01T18:47:47.353Z,21.50
2022-08-01T18:50:14.903Z,21.30
2022-08-01T18:52:45.039Z,21.20
2022-08-01T18:55:12.439Z,21.00
2022-08-01T18:57:42.609Z,20.80
2022-08-01T19:00:10.762Z,20.60
2022-08-01T19:02:38.190Z,20.40
2022-08-01T19:05:05.814Z,20.10
2022-08-01T19:08:05.592Z,19.90
2022-08-01T19:10:21.018Z,19.70
2022-08-01T19:12:48.508Z,19.50
2022-08-01T19:15:16.009Z,19.40
2022-08-01T19:17:44.710Z,19.30
2022-08-01T19:20:12.193Z,19.10
2022-08-01T19:22:39.607Z,19.10
2022-08-01T19:25:07.225Z,19.00
2022-08-01T19:27:37.743Z,18.90
2022-08-01T19:30:06.432Z,18.80
2022-08-01T19:32:34.511Z,18.80
2022-08-01T19:35:01.960Z,18.70
2022-08-01T19:37:32.752Z,18.70
2022-08-01T19:40:00.660Z,18.60
2022-08-01T19:42:29.621Z,18.60
2022-08-01T19:44:59.018Z,18.60
2022-08-01T19:47:26.532Z,18.60
2022-08-01T19:50:13.943Z,18.60
2022-08-01T19:52:44.701Z,18.60
2022-08-01T19:55:13.104Z,18.60
2022-08-01T19:57:45.686Z,18.60
2022-08-01T20:00:27.923Z,18.60
2022-08-01T20:02:56.514Z,18.50
2022-08-01T20:05:24.287Z,18.40
2022-08-01T20:07:51.864Z,18.30
2022-08-01T20:10:22.481Z,18.30
2022-08-01T20:12:50.278Z,18.20
2022-08-01T20:15:17.867Z,18.20
2022-08-01T20:17:45.657Z,18.00
2022-08-01T20:20:13.138Z,18.00
2022-08-01T20:22:41.219Z,18.00
2022-08-01T20:25:09.099Z,18.00
2022-08-01T20:27:37.815Z,17.90
2022-08-01T20:30:05.494Z,17.90
2022-08-01T20:32:33.771Z,17.90
2022-08-01T20:35:01.838Z,17.90
2022-08-01T20:38:03.488Z,17.90
2022-08-01T20:40:21.899Z,17.90
2022-08-01T20:42:53.490Z,17.90
2022-08-01T20:45:22.293Z,17.90
2022-08-01T20:47:50.875Z,17.90
2022-08-01T20:50:53.782Z,17.90
2022-08-01T20:53:25.196Z,17.90
2022-08-01T20:56:13.736Z,17.90
2022-08-01T20:58:59.969Z,17.90
2022-08-01T21:01:30.185Z,17.90
2022-08-01T21:04:16.267Z,17.90
2022-08-01T21:06:49.474Z,17.80
2022-08-01T21:09:20.306Z,17.80
2022-08-01T21:11:50.169Z,17.70
2022-08-01T21:14:21.496Z,17.70
2022-08-01T21:17:00.972Z,17.70
2022-08-01T21:19:29.527Z,17.70
2022-08-01T21:21:56.893Z,17.60
2022-08-01T21:24:26.893Z,17.70
2022-08-01T21:26:55.220Z,17.60
2022-08-01T21:29:26.578Z,17.60
2022-08-01T21:32:12.820Z,17.60
2022-08-01T21:34:40.467Z,17.60
2022-08-01T21:37:09.113Z,17.60
2022-08-01T21:39:37.393Z,17.60
2022-08-01T21:42:08.445Z,17.60
2022-08-01T21:44:38.733Z,17.60
2022-08-01T21:47:06.687Z,17.60
2022-08-01T21:49:40.594Z,17.60
2022-08-01T21:52:11.489Z,17.50
2022-08-01T21:54:41.680Z,17.50
2022-08-01T21:57:27.521Z,17.50
2022-08-01T22:00:01.269Z,17.60
2022-08-01T22:02:31.127Z,17.60
2022-08-01T22:05:03.227Z,17.60
2022-08-01T22:07:34.602Z,17.50
2022-08-01T22:10:03.998Z,17.60
2022-08-01T22:12:33.304Z,17.50
2022-08-01T22:15:02.037Z,17.50
2022-08-01T22:17:29.780Z,17.50
2022-08-01T22:19:57.218Z,17.50
2022-08-01T22:22:45.031Z,17.50
2022-08-01T22:25:12.806Z,17.40
2022-08-01T22:28:03.051Z,17.40
2022-08-01T22:30:32.154Z,17.40
2022-08-01T22:33:07.239Z,17.40
2022-08-01T22:35:44.041Z,17.40
2022-08-01T22:38:11.465Z,17.50
2022-08-01T22:40:45.057Z,17.50
2022-08-01T22:43:17.826Z,17.50
2022-08-01T22:45:45.470Z,17.50
2022-08-01T22:48:12.916Z,17.50
2022-08-01T22:50:44.666Z,17.50
2022-08-01T22:53:22.013Z,17.50
2022-08-01T22:55:59.332Z,17.50
2022-08-01T22:58:30.919Z,17.60
2022-08-01T23:00:59.859Z,17.60
2022-08-01T23:03:33.208Z,17.60
2022-08-01T23:06:05.090Z,17.60
2022-08-01T23:08:33.292Z,17.60
2022-08-01T23:11:01.372Z,17.60
2022-08-01T23:13:29.551Z,17.60
2022-08-01T23:15:57.523Z,17.60
2022-08-01T23:18:25.779Z,17.60
2022-08-01T23:20:56.946Z,17.70
2022-08-01T23:23:31.440Z,17.70
2022-08-01T23:26:00.287Z,17.70
2022-08-01T23:28:28.399Z,17.70
2022-08-01T23:30:56.017Z,17.70
2022-08-01T23:33:23.457Z,17.70
2022-08-01T23:35:51.514Z,17.70
2022-08-01T23:38:20.321Z,17.70
2022-08-01T23:40:48.066Z,17.70
2022-08-01T23:43:17.728Z,17.70
2022-08-01T23:46:02.864Z,17.70
2022-08-01T23:48:33.513Z,17.70
2022-08-01T23:51:01.103Z,17.70
2022-08-01T23:53:30.901Z,17.70
2022-08-01T23:55:59.263Z,17.80
2022-08-01T23:58:30.131Z,17.80
